createdAt,value
2022-09-30T00:01:22.068Z,16.49
2022-09-30T00:03:24.410Z,16.46
2022-09-30T00:05:26.310Z,16.17
2022-09-30T00:07:27.967Z,16.12
2022-09-30T00:09:29.780Z,16.04
2022-09-30T00:11:34.040Z,16.04
2022-09-30T00:13:38.019Z,16.08
2022-09-30T00:15:40.098Z,16.07
2022-09-30T00:17:41.908Z,16.12
2022-09-30T00:19:43.768Z,16.18
2022-09-30T00:21:45.676Z,16.24
2022-09-30T00:23:47.434Z,16.23
2022-09-30T00:25:49.119Z,16.22
2022-09-30T00:27:50.876Z,16.26
2022-09-30T00:29:52.561Z,16.29
2022-09-30T00:31:54.446Z,16.29
2022-09-30T00:34:14.421Z,16.32
2022-09-30T00:36:16.122Z,16.35
2022-09-30T00:38:17.782Z,16.37
2022-09-30T00:40:20.164Z,16.37
2022-09-30T00:42:22.694Z,16.36
2022-09-30T00:45:06.556Z,16.30
2022-09-30T00:47:42.396Z,16.25
2022-09-30T00:49:44.094Z,16.14
2022-09-30T00:51:49.398Z,16.11
2022-09-30T00:53:58.350Z,16.11
2022-09-30T00:56:06.929Z,16.03
2022-09-30T00:58:09.906Z,15.97
2022-09-30T01:00:11.734Z,15.62
2022-09-30T01:02:14.581Z,15.57
2022-09-30T01:04:18.280Z,15.65
2022-09-30T01:06:22.779Z,15.66
2022-09-30T01:08:25.498Z,15.70
2022-09-30T01:10:27.264Z,15.69
2022-09-30T01:12:29.041Z,15.70
2022-09-30T01:14:30.721Z,15.76
2022-09-30T01:17:07.861Z,15.77
2022-09-30T01:19:27.901Z,15.81
2022-09-30T01:22:19.999Z,15.85
2022-09-30T01:24:58.854Z,15.89
2022-09-30T01:27:23.524Z,15.92
2022-09-30T01:29:31.393Z,15.72
2022-09-30T01:31:52.627Z,15.70
2022-09-30T01:34:06.593Z,15.70
2022-09-30T01:36:40.369Z,15.74
2022-09-30T01:39:08.401Z,15.82
2022-09-30T01:41:26.186Z,15.83
2022-09-30T01:43:45.485Z,15.84
2022-09-30T01:45:52.257Z,15.86
2022-09-30T01:48:01.925Z,15.83
2022-09-30T01:50:18.195Z,15.83
2022-09-30T01:52:28.348Z,15.80
2022-09-30T01:54:36.114Z,15.80
2022-09-30T01:57:07.018Z,15.80
2022-09-30T01:59:13.466Z,15.81
2022-09-30T02:01:31.824Z,15.79
2022-09-30T02:03:40.442Z,15.79
2022-09-30T02:05:53.681Z,15.80
2022-09-30T02:07:58.988Z,15.75
2022-09-30T02:10:10.936Z,15.80
2022-09-30T02:12:16.133Z,15.79
2022-09-30T02:14:28.822Z,15.84
2022-09-30T02:16:47.440Z,15.80
2022-09-30T02:18:53.007Z,15.79
2022-09-30T02:20:59.660Z,15.80
2022-09-30T02:23:07.716Z,15.81
2022-09-30T02:25:15.118Z,15.55
2022-09-30T02:27:21.604Z,15.57
2022-09-30T02:29:27.831Z,15.59
2022-09-30T02:31:32.392Z,15.57
2022-09-30T02:33:49.702Z,15.59
2022-09-30T02:35:57.723Z,15.60
2022-09-30T02:38:20.222Z,15.66
2022-09-30T02:40:39.892Z,15.67
2022-09-30T02:42:44.090Z,15.65
2022-09-30T02:44:47.494Z,15.68
2022-09-30T02:46:56.977Z,15.71
2022-09-30T02:49:20.014Z,15.74
2022-09-30T02:51:30.063Z,15.76
2022-09-30T02:53:46.297Z,15.74
2022-09-30T02:56:15.279Z,15.60
2022-09-30T02:58:21.472Z,15.50
2022-09-30T03:00:24.219Z,15.30
2022-09-30T03:02:25.965Z,15.27
2022-09-30T03:04:31.165Z,15.32
2022-09-30T03:06:33.040Z,15.28
2022-09-30T03:08:35.112Z,15.28
2022-09-30T03:10:37.000Z,15.09
2022-09-30T03:12:58.971Z,15.07
2022-09-30T03:15:20.831Z,15.17
2022-09-30T03:17:44.779Z,15.17
2022-09-30T03:19:46.346Z,15.16
2022-09-30T03:22:11.590Z,15.07
2022-09-30T03:24:13.304Z,14.74
2022-09-30T03:26:37.753Z,14.82
2022-09-30T03:29:01.123Z,14.91
2022-09-30T03:31:38.545Z,14.91
2022-09-30T03:33:53.298Z,14.97
2022-09-30T03:36:06.775Z,15.00
2022-09-30T03:38:41.660Z,14.95
2022-09-30T03:41:01.024Z,14.90
2022-09-30T03:43:14.161Z,14.94
2022-09-30T03:45:30.451Z,15.06
2022-09-30T03:47:35.218Z,15.15
2022-09-30T03:49:43.243Z,15.21
2022-09-30T03:51:45.135Z,15.23
2022-09-30T03:53:47.078Z,15.27
2022-09-30T03:55:51.543Z,15.31
2022-09-30T03:57:54.454Z,15.33
2022-09-30T04:00:00.030Z,15.36
2022-09-30T04:02:02.599Z,15.39
2022-09-30T04:04:04.369Z,15.38
2022-09-30T04:06:09.831Z,15.42
2022-09-30T04:08:11.906Z,15.47
2022-09-30T04:10:13.465Z,15.50
2022-09-30T04:12:15.082Z,15.48
2022-09-30T04:14:16.951Z,15.49
2022-09-30T04:16:19.083Z,15.50
2022-09-30T04:18:20.741Z,15.44
2022-09-30T04:20:22.473Z,15.40
2022-09-30T04:22:26.486Z,15.37
2022-09-30T04:24:28.327Z,15.40
2022-09-30T04:26:30.125Z,15.47
2022-09-30T04:28:32.244Z,15.45
2022-09-30T04:30:33.933Z,15.52
2022-09-30T04:32:35.627Z,15.58
2022-09-30T04:34:37.883Z,15.61
2022-09-30T04:36:39.886Z,15.66
2022-09-30T04:38:41.535Z,15.67
2022-09-30T04:40:43.471Z,15.69
2022-09-30T04:42:45.242Z,15.68
2022-09-30T04:44:48.213Z,15.72
2022-09-30T04:46:50.784Z,15.73
2022-09-30T04:48:52.336Z,15.71
2022-09-30T04:50:54.067Z,15.72
2022-09-30T04:52:56.989Z,15.72
2022-09-30T04:54:58.801Z,15.55
2022-09-30T04:57:00.430Z,15.46
2022-09-30T04:59:02.092Z,15.42
2022-09-30T05:01:12.807Z,15.45
2022-09-30T05:03:15.098Z,15.49
2022-09-30T05:05:16.854Z,15.39
2022-09-30T05:07:18.580Z,15.23
2022-09-30T05:09:20.370Z,15.26
2022-09-30T05:11:22.727Z,15.29
2022-09-30T05:13:26.024Z,15.33
2022-09-30T05:15:27.907Z,15.42
2022-09-30T05:17:30.706Z,15.39
2022-09-30T05:19:32.475Z,15.37
2022-09-30T05:21:34.170Z,15.39
2022-09-30T05:23:35.856Z,15.44
2022-09-30T05:25:37.472Z,15.35
2022-09-30T05:27:39.070Z,15.36
2022-09-30T05:29:40.662Z,15.41
2022-09-30T05:31:42.870Z,15.45
2022-09-30T05:33:45.196Z,15.47
2022-09-30T05:35:47.819Z,15.49
2022-09-30T05:37:49.518Z,15.56
2022-09-30T05:39:51.179Z,15.65
2022-09-30T05:41:52.802Z,15.70
2022-09-30T05:43:54.529Z,15.76
2022-09-30T05:45:57.321Z,15.81
2022-09-30T05:47:58.993Z,15.85
2022-09-30T05:50:00.745Z,15.82
2022-09-30T05:52:02.537Z,15.73
2022-09-30T05:54:04.129Z,15.46
2022-09-30T05:56:07.504Z,15.41
2022-09-30T05:58:09.100Z,15.26
2022-09-30T06:00:11.456Z,15.26
2022-09-30T06:02:14.378Z,15.38
2022-09-30T06:04:16.315Z,15.52
2022-09-30T06:06:19.639Z,15.64
2022-09-30T06:08:21.653Z,15.65
2022-09-30T06:10:24.252Z,15.60
2022-09-30T06:12:27.633Z,15.68
2022-09-30T06:14:29.547Z,15.69
2022-09-30T06:16:32.131Z,15.75
2022-09-30T06:18:33.823Z,15.79
2022-09-30T06:20:38.991Z,15.82
2022-09-30T06:22:43.429Z,15.92
2022-09-30T06:24:45.833Z,15.99
2022-09-30T06:26:47.479Z,16.07
2022-09-30T06:28:50.276Z,16.12
2022-09-30T06:30:51.889Z,16.11
2022-09-30T06:32:57.132Z,16.14
2022-09-30T06:34:58.807Z,16.12
2022-09-30T06:37:01.366Z,16.14
2022-09-30T06:39:04.852Z,16.15
2022-09-30T06:41:07.289Z,16.18
2022-09-30T06:43:09.415Z,15.82
2022-09-30T06:45:20.306Z,15.84
2022-09-30T06:47:26.159Z,15.90
2022-09-30T06:49:34.937Z,15.87
2022-09-30T06:51:42.677Z,15.90
2022-09-30T06:53:44.481Z,16.01
2022-09-30T06:55:46.140Z,16.13
2022-09-30T06:57:48.266Z,16.29
2022-09-30T06:59:50.735Z,16.40
2022-09-30T07:01:52.675Z,16.56
2022-09-30T07:03:58.292Z,16.65
2022-09-30T07:06:01.865Z,16.62
2022-09-30T07:08:03.732Z,16.63
2022-09-30T07:10:05.914Z,16.42
2022-09-30T07:12:07.559Z,16.46
2022-09-30T07:14:10.285Z,16.57
2022-09-30T07:16:15.698Z,16.22
2022-09-30T07:18:20.557Z,16.28
2022-09-30T07:20:22.461Z,16.47
2022-09-30T07:22:34.623Z,16.45
2022-09-30T07:24:36.500Z,16.58
2022-09-30T07:26:39.616Z,16.75
2022-09-30T07:28:41.628Z,17.02
2022-09-30T07:30:43.862Z,17.19
2022-09-30T07:32:45.479Z,17.31
2022-09-30T07:34:47.455Z,17.40
2022-09-30T07:36:49.498Z,17.53
2022-09-30T07:38:51.519Z,17.76
2022-09-30T07:41:06.866Z,18.02
2022-09-30T07:43:28.013Z,18.23
2022-09-30T07:45:29.658Z,18.42
2022-09-30T07:47:31.329Z,18.34
2022-09-30T07:49:32.957Z,18.35
2022-09-30T07:51:38.593Z,18.44
2022-09-30T07:53:41.237Z,18.39
2022-09-30T07:55:42.788Z,18.54
2022-09-30T07:57:44.393Z,18.45
2022-09-30T07:59:46.075Z,18.49
2022-09-30T08:01:47.734Z,18.52
2022-09-30T08:03:53.478Z,18.50
2022-09-30T08:05:55.342Z,18.49
2022-09-30T08:07:56.920Z,18.42
2022-09-30T08:09:58.550Z,18.43
2022-09-30T08:12:02.870Z,18.52
2022-09-30T08:14:05.507Z,18.53
2022-09-30T08:16:07.712Z,18.71
2022-09-30T08:18:09.636Z,18.71
2022-09-30T08:20:13.795Z,18.78
2022-09-30T08:22:17.325Z,18.90
2022-09-30T08:24:19.105Z,18.95
2022-09-30T08:26:20.790Z,19.08
2022-09-30T08:28:22.383Z,19.18
2022-09-30T08:30:24.158Z,19.41
2022-09-30T08:32:25.872Z,19.59
2022-09-30T08:34:27.533Z,19.75
2022-09-30T08:36:29.552Z,19.59
2022-09-30T08:38:31.256Z,19.64
2022-09-30T08:40:34.409Z,19.62
2022-09-30T08:43:09.220Z,19.52
2022-09-30T08:45:26.109Z,19.32
2022-09-30T08:48:05.367Z,19.43
2022-09-30T08:50:54.256Z,19.70
2022-09-30T08:53:03.888Z,19.73
2022-09-30T08:55:06.394Z,19.82
2022-09-30T08:57:10.871Z,19.89
2022-09-30T08:59:28.578Z,20.15
2022-09-30T09:01:34.887Z,20.39
2022-09-30T09:03:36.613Z,20.53
2022-09-30T09:05:52.489Z,20.28
2022-09-30T09:08:03.538Z,19.87
2022-09-30T09:10:16.584Z,19.76
2022-09-30T09:12:31.636Z,19.81
2022-09-30T09:14:43.647Z,20.00
2022-09-30T09:17:27.057Z,20.36
2022-09-30T09:19:38.476Z,20.70
2022-09-30T09:21:49.211Z,20.60
2022-09-30T09:23:53.692Z,20.68
2022-09-30T09:25:55.774Z,20.70
2022-09-30T09:28:03.518Z,20.89
2022-09-30T09:30:16.457Z,21.17
2022-09-30T09:32:18.990Z,21.37
2022-09-30T09:34:23.535Z,21.40
2022-09-30T09:36:46.310Z,21.60
2022-09-30T09:39:07.086Z,21.56
2022-09-30T09:41:17.517Z,21.58
2022-09-30T09:43:48.342Z,21.27
2022-09-30T09:46:00.574Z,21.17
2022-09-30T09:48:02.273Z,21.17
2022-09-30T09:50:06.646Z,21.24
2022-09-30T09:52:12.479Z,21.40
2022-09-30T09:54:17.374Z,21.12
2022-09-30T09:56:29.720Z,21.15
2022-09-30T09:58:34.192Z,21.53
2022-09-30T10:00:47.959Z,21.67
2022-09-30T10:03:06.094Z,22.03
2022-09-30T10:05:26.448Z,22.13
2022-09-30T10:07:30.325Z,22.38
2022-09-30T10:09:38.193Z,22.46
2022-09-30T10:11:39.816Z,22.67
2022-09-30T10:13:45.410Z,22.92
2022-09-30T10:15:47.990Z,23.17
2022-09-30T10:17:57.791Z,23.31
2022-09-30T10:20:07.594Z,23.46
2022-09-30T10:22:09.299Z,23.65
2022-09-30T10:24:28.755Z,23.84
2022-09-30T10:26:30.395Z,23.47
2022-09-30T10:28:35.111Z,23.26
2022-09-30T10:30:41.000Z,23.42
2022-09-30T10:32:42.626Z,23.42
2022-09-30T10:35:03.387Z,23.57
2022-09-30T10:37:11.460Z,23.45
2022-09-30T10:39:28.910Z,23.66
2022-09-30T10:41:32.509Z,23.92
2022-09-30T10:43:44.903Z,24.14
2022-09-30T10:46:01.320Z,24.27
2022-09-30T10:48:17.915Z,23.86
2022-09-30T10:50:22.737Z,23.86
2022-09-30T10:52:26.665Z,23.83
2022-09-30T10:54:40.681Z,23.83
2022-09-30T10:56:45.171Z,24.04
2022-09-30T10:58:51.804Z,23.87
2022-09-30T11:01:25.141Z,24.16
2022-09-30T11:03:41.130Z,24.47
2022-09-30T11:05:45.020Z,24.59
2022-09-30T11:08:00.252Z,24.53
2022-09-30T11:10:14.075Z,24.69
2022-09-30T11:12:18.459Z,24.77
2022-09-30T11:15:01.186Z,24.91
2022-09-30T11:17:04.075Z,25.08
2022-09-30T11:19:05.606Z,25.13
2022-09-30T11:21:15.506Z,24.68
2022-09-30T11:23:37.478Z,24.55
2022-09-30T11:25:48.825Z,24.71
2022-09-30T11:28:09.827Z,24.79
2022-09-30T11:30:28.095Z,24.93
2022-09-30T11:32:48.316Z,25.02
2022-09-30T11:34:59.760Z,24.96
2022-09-30T11:37:22.678Z,24.90
2022-09-30T11:39:35.093Z,25.05
2022-09-30T11:41:40.592Z,25.10
2022-09-30T11:43:45.309Z,25.24
2022-09-30T11:46:03.353Z,25.29
2022-09-30T11:48:20.668Z,25.31
2022-09-30T11:50:44.386Z,25.27
2022-09-30T11:53:25.261Z,25.23
2022-09-30T11:55:38.859Z,25.20
2022-09-30T11:57:46.273Z,25.18
2022-09-30T12:00:16.413Z,25.10
2022-09-30T12:02:39.299Z,24.86
2022-09-30T12:04:43.104Z,24.88
2022-09-30T12:06:52.050Z,24.84
2022-09-30T12:09:02.401Z,24.80
2022-09-30T12:11:59.794Z,24.83
2022-09-30T12:14:07.614Z,24.76
2022-09-30T12:16:21.999Z,24.87
2022-09-30T12:18:40.242Z,24.92
2022-09-30T12:20:44.801Z,24.84
2022-09-30T12:22:47.752Z,24.92
2022-09-30T12:24:49.353Z,24.96
2022-09-30T12:26:51.521Z,24.98
2022-09-30T12:29:33.573Z,25.13
2022-09-30T12:31:54.798Z,25.14
2022-09-30T12:34:31.877Z,25.06
2022-09-30T12:36:45.540Z,25.06
2022-09-30T12:38:57.892Z,25.12
2022-09-30T12:40:59.424Z,25.23
2022-09-30T12:43:07.701Z,25.18
2022-09-30T12:45:22.233Z,25.31
2022-09-30T12:47:31.563Z,25.37
2022-09-30T12:49:34.055Z,25.39
2022-09-30T12:51:40.552Z,25.48
2022-09-30T12:53:42.396Z,25.54
2022-09-30T12:55:44.339Z,25.48
2022-09-30T12:57:47.310Z,25.43
2022-09-30T12:59:58.117Z,25.34
2022-09-30T13:02:01.372Z,25.19
2022-09-30T13:04:02.971Z,25.20
2022-09-30T13:06:06.700Z,25.19
2022-09-30T13:08:09.802Z,25.22
2022-09-30T13:10:31.055Z,25.15
2022-09-30T13:12:44.366Z,25.13
2022-09-30T13:14:45.982Z,25.11
2022-09-30T13:17:10.293Z,25.04
2022-09-30T13:19:21.243Z,24.89
2022-09-30T13:21:24.034Z,24.98
2022-09-30T13:23:41.972Z,25.05
2022-09-30T13:25:56.379Z,24.96
2022-09-30T13:28:20.687Z,24.96
2022-09-30T13:30:22.464Z,24.89
2022-09-30T13:32:57.660Z,24.88
2022-09-30T13:34:59.609Z,24.93
2022-09-30T13:37:03.300Z,24.96
2022-09-30T13:39:23.157Z,24.94
2022-09-30T13:41:26.185Z,25.03
2022-09-30T13:43:34.134Z,25.02
2022-09-30T13:45:39.574Z,25.04
2022-09-30T13:47:48.226Z,25.04
2022-09-30T13:50:14.094Z,25.09
2022-09-30T13:52:23.748Z,25.21
2022-09-30T13:54:31.894Z,25.31
2022-09-30T13:56:35.268Z,25.37
2022-09-30T13:59:10.335Z,25.39
2022-09-30T14:02:10.822Z,25.41
2022-09-30T14:04:33.338Z,25.46
2022-09-30T14:06:37.743Z,25.52
2022-09-30T14:08:48.143Z,25.50
2022-09-30T14:10:59.963Z,25.42
2022-09-30T14:13:42.567Z,25.47
2022-09-30T14:16:02.041Z,25.50
2022-09-30T14:18:33.149Z,25.54
2022-09-30T14:21:11.355Z,25.61
2022-09-30T14:23:15.038Z,25.54
2022-09-30T14:25:18.808Z,25.31
2022-09-30T14:27:29.079Z,25.40
2022-09-30T14:30:04.557Z,25.43
2022-09-30T14:32:39.749Z,25.58
2022-09-30T14:38:15.565Z,25.72
2022-09-30T14:40:25.305Z,25.79
2022-09-30T14:42:32.318Z,25.78
2022-09-30T14:44:36.539Z,25.80
2022-09-30T14:46:41.284Z,25.80
2022-09-30T14:48:44.102Z,25.77
2022-09-30T14:51:01.226Z,25.82
2022-09-30T14:53:03.669Z,25.81
2022-09-30T14:55:28.861Z,25.62
2022-09-30T14:57:31.470Z,25.69
2022-09-30T14:59:34.748Z,25.61
2022-09-30T15:01:37.721Z,25.58
2022-09-30T15:04:03.674Z,25.55
2022-09-30T15:06:07.143Z,25.61
2022-09-30T15:08:18.552Z,25.58
2022-09-30T15:10:24.135Z,25.49
2022-09-30T15:12:26.821Z,25.48
2022-09-30T15:14:28.672Z,25.49
2022-09-30T15:16:33.692Z,25.53
2022-09-30T15:18:44.626Z,25.54
2022-09-30T15:20:46.333Z,25.54
2022-09-30T15:22:48.710Z,25.48
2022-09-30T15:24:51.403Z,25.38
2022-09-30T15:26:55.633Z,25.26
2022-09-30T15:28:57.441Z,25.17
2022-09-30T15:30:59.250Z,24.99
2022-09-30T15:33:04.161Z,24.91
2022-09-30T15:35:17.303Z,24.77
2022-09-30T15:37:25.063Z,24.69
2022-09-30T15:39:47.541Z,24.59
2022-09-30T15:41:49.980Z,24.48
2022-09-30T15:43:52.671Z,24.39
2022-09-30T15:45:58.301Z,24.26
2022-09-30T15:48:02.592Z,24.18
2022-09-30T15:50:05.289Z,24.07
2022-09-30T15:52:36.342Z,23.94
2022-09-30T15:54:39.305Z,23.86
2022-09-30T15:56:42.408Z,23.78
2022-09-30T15:59:03.241Z,23.67
2022-09-30T16:01:27.836Z,23.56
2022-09-30T16:03:30.584Z,23.46
2022-09-30T16:05:33.044Z,23.36
2022-09-30T16:07:35.024Z,23.24
2022-09-30T16:09:41.197Z,23.14
2022-09-30T16:11:45.244Z,23.08
2022-09-30T16:13:48.178Z,23.00
2022-09-30T16:15:51.076Z,22.92
2022-09-30T16:17:52.740Z,22.84
2022-09-30T16:19:59.287Z,22.72
2022-09-30T16:22:01.277Z,22.64
2022-09-30T16:24:03.040Z,22.56
2022-09-30T16:26:20.904Z,22.51
2022-09-30T16:28:22.673Z,22.44
2022-09-30T16:30:25.071Z,22.39
2022-09-30T16:32:27.599Z,22.35
2022-09-30T16:34:30.023Z,22.32
2022-09-30T16:36:32.808Z,22.28
2022-09-30T16:38:34.853Z,22.24
2022-09-30T16:40:38.007Z,22.19
2022-09-30T16:42:39.598Z,22.16
2022-09-30T16:44:44.576Z,22.08
2022-09-30T16:46:46.285Z,22.02
2022-09-30T16:48:47.861Z,21.98
2022-09-30T16:51:14.544Z,21.94
2022-09-30T16:53:16.181Z,21.95
2022-09-30T16:55:17.799Z,21.93
2022-09-30T16:57:19.490Z,21.91
2022-09-30T16:59:21.084Z,21.86
2022-09-30T17:01:25.455Z,21.85
2022-09-30T17:03:28.187Z,21.83
2022-09-30T17:05:29.833Z,21.78
2022-09-30T17:07:31.414Z,21.75
2022-09-30T17:09:33.113Z,21.67
2022-09-30T17:11:35.862Z,21.62
2022-09-30T17:13:37.944Z,21.56
2022-09-30T17:15:39.826Z,21.50
2022-09-30T17:17:41.456Z,21.39
2022-09-30T17:19:43.092Z,21.23
2022-09-30T17:21:46.078Z,21.10
2022-09-30T17:23:47.986Z,21.07
2022-09-30T17:25:49.954Z,21.06
2022-09-30T17:27:51.766Z,21.05
2022-09-30T17:29:53.396Z,21.04
2022-09-30T17:31:55.807Z,21.03
2022-09-30T17:33:57.567Z,21.05
2022-09-30T17:36:00.712Z,21.06
2022-09-30T17:38:06.844Z,21.07
2022-09-30T17:40:27.867Z,21.06
2022-09-30T17:42:47.759Z,21.06
2022-09-30T17:44:49.496Z,21.06
2022-09-30T17:47:00.787Z,21.06
2022-09-30T17:49:02.408Z,21.05
2022-09-30T17:51:04.327Z,21.02
2022-09-30T17:53:06.302Z,21.05
2022-09-30T17:55:08.194Z,21.04
2022-09-30T17:57:09.946Z,21.03
2022-09-30T17:59:11.545Z,21.04
2022-09-30T18:01:14.031Z,21.03
2022-09-30T18:03:15.969Z,21.02
2022-09-30T18:05:17.569Z,21.06
2022-09-30T18:07:21.068Z,21.03
2022-09-30T18:09:23.646Z,21.01
2022-09-30T18:11:26.931Z,20.99
2022-09-30T18:13:28.759Z,20.99
2022-09-30T18:15:31.233Z,20.79
2022-09-30T18:17:32.896Z,20.81
2022-09-30T18:19:35.751Z,20.74
2022-09-30T18:21:38.001Z,20.75
2022-09-30T18:23:39.841Z,20.69
2022-09-30T18:25:43.884Z,20.67
2022-09-30T18:27:49.825Z,20.65
2022-09-30T18:29:51.821Z,20.64
2022-09-30T18:31:53.463Z,20.62
2022-09-30T18:33:56.019Z,20.65
2022-09-30T18:36:00.265Z,20.65
2022-09-30T18:38:02.445Z,20.67
2022-09-30T18:40:04.857Z,20.69
2022-09-30T18:42:06.739Z,20.71
2022-09-30T18:44:09.109Z,20.69
2022-09-30T18:46:11.578Z,20.61
2022-09-30T18:48:13.594Z,20.59
2022-09-30T18:50:17.256Z,20.63
2022-09-30T18:52:18.713Z,20.63
2022-09-30T18:54:20.915Z,20.60
2022-09-30T18:56:23.656Z,20.60
2022-09-30T18:58:25.894Z,20.56
2022-09-30T19:00:29.821Z,20.52
2022-09-30T19:02:32.440Z,20.52
2022-09-30T19:04:34.056Z,20.49
2022-09-30T19:06:35.856Z,20.35
2022-09-30T19:08:37.458Z,20.24
2022-09-30T19:10:41.655Z,20.23
2022-09-30T19:12:45.929Z,20.22
2022-09-30T19:14:47.830Z,20.17
2022-09-30T19:16:51.311Z,20.13
2022-09-30T19:18:54.779Z,20.09
2022-09-30T19:20:56.426Z,20.11
2022-09-30T19:22:58.373Z,20.12
2022-09-30T19:25:00.147Z,20.17
2022-09-30T19:27:02.112Z,20.14
2022-09-30T19:29:05.474Z,20.10
2022-09-30T19:31:15.413Z,20.11
2022-09-30T19:33:20.108Z,19.95
2022-09-30T19:35:34.476Z,19.57
2022-09-30T19:37:51.128Z,19.52
2022-09-30T19:39:56.734Z,19.58
2022-09-30T19:42:03.158Z,19.65
2022-09-30T19:44:05.948Z,19.71
2022-09-30T19:46:09.839Z,19.76
2022-09-30T19:48:11.538Z,19.77
2022-09-30T19:50:13.211Z,19.79
2022-09-30T19:52:21.947Z,19.82
2022-09-30T19:54:37.482Z,19.82
2022-09-30T19:56:41.624Z,19.67
2022-09-30T19:58:46.106Z,19.50
2022-09-30T20:00:54.010Z,19.47
2022-09-30T20:02:57.582Z,19.50
2022-09-30T20:05:00.581Z,19.54
2022-09-30T20:07:02.274Z,19.57
2022-09-30T20:09:06.277Z,19.56
2022-09-30T20:11:10.928Z,19.57
2022-09-30T20:13:12.505Z,19.51
2022-09-30T20:15:32.794Z,19.23
2022-09-30T20:17:35.038Z,19.13
2022-09-30T20:19:36.669Z,19.14
2022-09-30T20:21:38.542Z,19.14
2022-09-30T20:23:41.106Z,19.07
2022-09-30T20:25:42.944Z,19.02
2022-09-30T20:27:48.615Z,19.02
2022-09-30T20:30:12.166Z,19.02
2022-09-30T20:32:13.749Z,18.68
2022-09-30T20:34:16.803Z,18.53
2022-09-30T20:36:20.089Z,18.59
2022-09-30T20:38:24.892Z,18.63
2022-09-30T20:40:26.714Z,18.68
2022-09-30T20:42:30.972Z,18.58
2022-09-30T20:44:33.210Z,18.61
2022-09-30T20:46:35.163Z,18.68
2022-09-30T20:48:38.411Z,18.74
2022-09-30T20:50:40.207Z,18.77
2022-09-30T20:52:41.850Z,18.82
2022-09-30T20:54:43.728Z,18.86
2022-09-30T20:57:06.388Z,18.88
2022-09-30T20:59:08.538Z,18.92
2022-09-30T21:01:14.451Z,18.94
2022-09-30T21:03:16.262Z,18.97
2022-09-30T21:05:18.353Z,18.96
2022-09-30T21:07:20.346Z,18.93
2022-09-30T21:09:21.961Z,18.91
2022-09-30T21:11:24.371Z,18.89
2022-09-30T21:13:26.538Z,18.83
2022-09-30T21:15:28.715Z,18.56
2022-09-30T21:17:31.386Z,18.19
2022-09-30T21:19:33.286Z,18.18
2022-09-30T21:21:35.269Z,18.22
2022-09-30T21:23:37.483Z,18.31
2022-09-30T21:25:39.254Z,18.36
2022-09-30T21:27:40.958Z,18.45
2022-09-30T21:29:43.709Z,18.48
2022-09-30T21:31:45.500Z,18.49
2022-09-30T21:33:56.418Z,18.52
2022-09-30T21:36:02.566Z,18.53
2022-09-30T21:38:04.275Z,18.53
2022-09-30T21:40:06.469Z,18.53
2022-09-30T21:42:08.161Z,18.52
2022-09-30T21:44:10.085Z,18.41
2022-09-30T21:46:13.921Z,18.31
2022-09-30T21:48:15.564Z,18.22
2022-09-30T21:50:17.242Z,18.00
2022-09-30T21:52:18.858Z,17.71
2022-09-30T21:54:20.490Z,17.71
2022-09-30T21:56:23.002Z,17.79
2022-09-30T21:58:26.056Z,17.63
2022-09-30T22:00:28.041Z,17.66
2022-09-30T22:02:29.765Z,17.69
2022-09-30T22:04:31.837Z,17.70
2022-09-30T22:06:33.691Z,17.78
2022-09-30T22:08:40.853Z,17.68
2022-09-30T22:10:43.474Z,17.54
2022-09-30T22:12:46.414Z,17.56
2022-09-30T22:14:48.040Z,17.63
2022-09-30T22:16:50.023Z,17.71
2022-09-30T22:18:56.165Z,17.80
2022-09-30T22:21:03.575Z,17.85
2022-09-30T22:23:05.180Z,17.89
2022-09-30T22:25:07.730Z,17.93
2022-09-30T22:27:09.374Z,17.94
2022-09-30T22:29:12.187Z,17.94
2022-09-30T22:31:22.349Z,17.87
2022-09-30T22:33:42.493Z,17.76
2022-09-30T22:36:02.979Z,17.74
2022-09-30T22:38:16.639Z,17.73
2022-09-30T22:40:18.269Z,17.59
2022-09-30T22:42:19.973Z,17.15
2022-09-30T22:44:24.763Z,17.12
2022-09-30T22:46:26.719Z,17.15
2022-09-30T22:48:29.878Z,17.22
2022-09-30T22:50:35.591Z,17.30
2022-09-30T22:52:37.201Z,17.13
2022-09-30T22:54:39.050Z,17.14
2022-09-30T22:56:41.030Z,17.14
2022-09-30T22:58:42.636Z,17.20
2022-09-30T23:00:55.229Z,17.26
2022-09-30T23:02:56.950Z,17.30
2022-09-30T23:04:59.705Z,17.35
2022-09-30T23:07:01.394Z,17.37
2022-09-30T23:09:07.125Z,17.20
2022-09-30T23:11:10.563Z,17.20
2022-09-30T23:13:13.379Z,17.20
2022-09-30T23:15:15.361Z,16.83
2022-09-30T23:17:16.964Z,16.87
2022-09-30T23:19:19.208Z,16.56
2022-09-30T23:21:21.278Z,16.58
2022-09-30T23:23:23.117Z,16.67
2022-09-30T23:25:24.747Z,16.69
2022-09-30T23:27:26.424Z,16.51
2022-09-30T23:29:28.055Z,16.47
2022-09-30T23:31:30.096Z,16.51
2022-09-30T23:33:31.826Z,16.63
2022-09-30T23:35:33.539Z,16.73
2022-09-30T23:37:35.197Z,16.82
2022-09-30T23:39:37.026Z,16.92
2022-09-30T23:41:38.986Z,16.90
2022-09-30T23:43:45.817Z,16.86
2022-09-30T23:45:47.792Z,16.88
2022-09-30T23:47:49.527Z,16.86
2022-09-30T23:49:51.160Z,16.85
2022-09-30T23:51:52.805Z,16.87
2022-09-30T23:53:54.729Z,16.73
2022-09-30T23:55:57.903Z,16.72
2022-09-30T23:57:59.507Z,16.77
